createdAt,value
2019-05-11T00:01:59.731Z,8.18
2019-05-11T00:07:05.749Z,8.18
2019-05-11T00:12:11.019Z,8.16
2019-05-11T00:17:22.027Z,8.14
2019-05-11T00:22:27.269Z,8.18
2019-05-11T00:27:32.437Z,8.20
2019-05-11T00:32:39.119Z,8.23
2019-05-11T00:37:44.292Z,8.22
2019-05-11T00:42:49.532Z,8.14
2019-05-11T00:47:54.629Z,8.12
2019-05-11T00:52:59.862Z,8.04
2019-05-11T00:58:05.133Z,8.06
2019-05-11T01:03:11.449Z,8.09
2019-05-11T01:08:16.695Z,8.11
2019-05-11T01:13:22.181Z,8.12
2019-05-11T01:18:28.516Z,8.14
2019-05-11T01:23:34.126Z,7.96
2019-05-11T01:28:39.380Z,7.90
2019-05-11T01:33:44.672Z,7.85
2019-05-11T01:38:51.111Z,7.87
2019-05-11T01:43:56.669Z,7.84
2019-05-11T01:49:02.420Z,7.81
2019-05-11T01:54:07.744Z,7.81
2019-05-11T01:59:14.833Z,7.79
2019-05-11T02:04:20.010Z,7.78
2019-05-11T02:09:25.278Z,7.74
2019-05-11T02:14:31.527Z,7.78
2019-05-11T02:19:36.722Z,7.84
2019-05-11T02:24:41.983Z,7.89
2019-05-11T02:29:47.247Z,7.91
2019-05-11T02:34:52.542Z,7.91
2019-05-11T02:39:57.831Z,7.92
2019-05-11T02:45:03.816Z,7.90
2019-05-11T02:50:09.781Z,7.91
2019-05-11T02:55:15.052Z,7.93
2019-05-11T03:00:24.873Z,7.95
2019-05-11T03:05:30.091Z,7.98
2019-05-11T03:10:35.442Z,8.01
2019-05-11T03:15:40.707Z,8.05
2019-05-11T03:20:50.438Z,8.06
2019-05-11T03:25:55.743Z,8.05
2019-05-11T03:31:01.270Z,8.00
2019-05-11T03:36:06.824Z,7.75
2019-05-11T03:41:12.277Z,7.67
2019-05-11T03:46:17.471Z,7.73
2019-05-11T03:51:22.704Z,7.74
2019-05-11T03:56:28.225Z,7.80
2019-05-11T04:01:34.329Z,7.88
2019-05-11T04:06:39.424Z,7.94
2019-05-11T04:11:44.945Z,7.93
2019-05-11T04:16:50.342Z,7.99
2019-05-11T04:21:55.704Z,8.05
2019-05-11T04:27:00.787Z,8.07
2019-05-11T04:32:06.010Z,8.12
2019-05-11T04:37:11.584Z,8.14
2019-05-11T04:42:16.665Z,8.13
2019-05-11T04:47:21.897Z,8.12
2019-05-11T04:52:27.143Z,8.09
2019-05-11T04:57:32.373Z,8.11
2019-05-11T05:02:37.609Z,8.10
2019-05-11T05:07:49.005Z,8.08
2019-05-11T05:12:53.333Z,8.07
2019-05-11T05:17:58.329Z,8.10
2019-05-11T05:23:03.527Z,8.15
2019-05-11T05:28:09.046Z,8.21
2019-05-11T05:33:14.366Z,8.21
2019-05-11T05:38:19.556Z,8.24
2019-05-11T05:43:28.320Z,8.27
2019-05-11T05:48:31.913Z,8.30
2019-05-11T05:53:37.371Z,8.38
2019-05-11T05:58:42.489Z,8.47
2019-05-11T06:03:47.919Z,8.58
2019-05-11T06:08:53.885Z,8.62
2019-05-11T06:14:00.378Z,8.66
2019-05-11T06:19:07.086Z,8.62
2019-05-11T06:24:12.510Z,8.63
2019-05-11T06:29:21.493Z,8.62
2019-05-11T06:34:24.875Z,8.64
2019-05-11T06:39:30.335Z,8.68
2019-05-11T06:44:35.606Z,8.76
2019-05-11T06:49:41.039Z,8.89
2019-05-11T06:54:46.263Z,9.00
2019-05-11T06:59:51.782Z,9.09
2019-05-11T07:04:57.196Z,9.11
2019-05-11T07:10:02.364Z,9.13
2019-05-11T07:15:09.076Z,9.18
2019-05-11T07:20:14.696Z,9.18
2019-05-11T07:25:20.362Z,9.12
2019-05-11T07:30:25.472Z,9.12
2019-05-11T07:35:31.444Z,9.13
2019-05-11T07:40:38.492Z,9.09
2019-05-11T07:45:43.906Z,9.08
2019-05-11T07:50:49.134Z,9.08
2019-05-11T07:55:54.741Z,9.04
2019-05-11T08:01:00.037Z,9.02
2019-05-11T08:06:05.546Z,8.98
2019-05-11T08:11:10.802Z,8.94
2019-05-11T08:16:18.322Z,8.96
2019-05-11T08:21:22.947Z,8.91
2019-05-11T08:26:28.562Z,8.83
2019-05-11T08:31:34.865Z,8.83
2019-05-11T08:36:40.108Z,8.69
2019-05-11T08:41:45.879Z,8.62
2019-05-11T08:46:51.364Z,8.67
2019-05-11T08:51:57.817Z,8.67
2019-05-11T08:57:03.893Z,8.67
2019-05-11T09:02:09.842Z,8.73
2019-05-11T09:07:15.011Z,8.85
2019-05-11T09:12:20.191Z,8.90
2019-05-11T09:17:26.098Z,8.88
2019-05-11T09:22:31.466Z,8.90
2019-05-11T09:27:37.638Z,8.96
2019-05-11T09:32:43.772Z,8.97
2019-05-11T09:37:49.796Z,9.10
2019-05-11T09:42:55.442Z,9.15
2019-05-11T09:48:00.856Z,9.24
2019-05-11T09:53:08.544Z,9.25
2019-05-11T09:58:13.455Z,9.29
2019-05-11T10:03:18.992Z,9.33
2019-05-11T10:08:24.257Z,9.39
2019-05-11T10:13:29.612Z,9.39
2019-05-11T10:18:34.767Z,9.36
2019-05-11T10:23:42.630Z,9.39
2019-05-11T10:28:48.135Z,9.60
2019-05-11T10:33:53.573Z,9.67
2019-05-11T10:38:59.030Z,9.74
2019-05-11T10:44:04.674Z,9.82
2019-05-11T10:49:09.933Z,9.74
2019-05-11T10:54:18.510Z,9.66
2019-05-11T10:59:23.373Z,9.50
2019-05-11T11:04:29.122Z,9.54
2019-05-11T11:09:34.375Z,9.53
2019-05-11T11:14:40.013Z,9.55
2019-05-11T11:19:48.476Z,9.65
2019-05-11T11:24:53.411Z,9.62
2019-05-11T11:29:58.666Z,9.68
2019-05-11T11:35:04.894Z,9.74
2019-05-11T11:40:11.360Z,9.76
2019-05-11T11:45:19.378Z,9.79
2019-05-11T11:50:24.619Z,9.91
2019-05-11T11:55:29.853Z,9.95
2019-05-11T12:00:35.081Z,10.00
2019-05-11T12:05:40.224Z,9.97
2019-05-11T12:10:45.504Z,9.98
2019-05-11T12:15:50.939Z,9.98
2019-05-11T12:20:58.562Z,10.12
2019-05-11T12:26:03.621Z,10.12
2019-05-11T12:31:08.886Z,9.95
2019-05-11T12:36:14.184Z,9.84
2019-05-11T12:41:19.355Z,9.79
2019-05-11T12:46:24.522Z,9.71
2019-05-11T12:51:29.880Z,9.66
2019-05-11T12:56:35.101Z,9.51
2019-05-11T13:01:40.609Z,9.35
2019-05-11T13:06:47.738Z,9.28
2019-05-11T13:11:52.643Z,9.18
2019-05-11T13:16:59.004Z,9.12
2019-05-11T13:22:05.129Z,9.08
2019-05-11T13:27:10.364Z,9.05
2019-05-11T13:32:15.674Z,9.03
2019-05-11T13:37:20.949Z,9.02
2019-05-11T13:42:27.750Z,9.01
2019-05-11T13:47:51.754Z,9.07
2019-05-11T13:52:47.908Z,9.09
2019-05-11T13:57:53.038Z,9.14
2019-05-11T14:03:00.363Z,9.27
2019-05-11T14:08:07.880Z,9.30
2019-05-11T14:13:12.524Z,9.32
2019-05-11T14:18:18.901Z,9.31
2019-05-11T14:23:24.074Z,9.46
2019-05-11T14:28:29.459Z,9.48
2019-05-11T14:33:38.531Z,9.44
2019-05-11T14:38:43.794Z,9.44
2019-05-11T14:43:49.177Z,9.41
2019-05-11T14:48:55.137Z,9.40
2019-05-11T14:54:00.442Z,9.34
2019-05-11T14:59:09.007Z,9.23
2019-05-11T15:04:14.686Z,9.13
2019-05-11T15:09:19.755Z,9.13
2019-05-11T15:14:25.228Z,9.10
2019-05-11T15:19:30.299Z,9.02
2019-05-11T15:24:38.337Z,8.94
2019-05-11T15:29:43.051Z,8.96
2019-05-11T15:34:48.864Z,8.97
2019-05-11T15:39:56.258Z,9.00
2019-05-11T15:45:01.739Z,8.99
2019-05-11T15:50:08.377Z,9.02
2019-05-11T15:55:14.750Z,8.89
2019-05-11T16:00:20.972Z,8.81
2019-05-11T16:05:28.524Z,8.83
2019-05-11T16:10:33.981Z,8.75
2019-05-11T16:15:40.188Z,8.70
2019-05-11T16:20:49.923Z,8.70
2019-05-11T16:25:55.207Z,8.67
2019-05-11T16:31:00.827Z,8.62
2019-05-11T16:36:08.758Z,8.64
2019-05-11T16:41:13.057Z,8.59
2019-05-11T16:46:18.122Z,8.48
2019-05-11T16:51:23.479Z,8.40
2019-05-11T16:56:28.773Z,8.36
2019-05-11T17:01:34.203Z,8.33
2019-05-11T17:06:39.356Z,8.29
2019-05-11T17:11:44.592Z,8.26
2019-05-11T17:16:49.746Z,8.23
2019-05-11T17:21:54.892Z,8.04
2019-05-11T17:26:59.883Z,7.88
2019-05-11T17:32:05.460Z,7.80
2019-05-11T17:37:10.716Z,7.76
2019-05-11T17:42:18.183Z,7.76
2019-05-11T17:47:23.823Z,7.75
2019-05-11T17:52:29.170Z,7.71
2019-05-11T17:57:34.477Z,7.72
2019-05-11T18:02:39.713Z,7.73
2019-05-11T18:07:44.852Z,7.68
2019-05-11T18:12:50.050Z,7.64
2019-05-11T18:17:55.761Z,7.59
2019-05-11T18:23:01.193Z,7.54
2019-05-11T18:28:07.117Z,7.48
2019-05-11T18:33:12.266Z,7.42
2019-05-11T18:38:17.945Z,7.27
2019-05-11T18:43:23.190Z,7.07
2019-05-11T18:48:29.092Z,6.93
2019-05-11T18:53:34.269Z,6.84
2019-05-11T18:58:40.011Z,6.77
2019-05-11T19:03:45.167Z,6.73
2019-05-11T19:08:50.330Z,6.69
2019-05-11T19:13:55.446Z,6.66
2019-05-11T19:19:00.601Z,6.64
2019-05-11T19:24:07.031Z,6.59
2019-05-11T19:29:12.537Z,6.55
2019-05-11T19:34:20.379Z,6.50
2019-05-11T19:39:25.388Z,6.47
2019-05-11T19:44:30.462Z,6.42
2019-05-11T19:49:35.750Z,6.39
2019-05-11T19:54:41.703Z,6.38
2019-05-11T19:59:48.102Z,6.35
2019-05-11T20:04:54.259Z,6.31
2019-05-11T20:09:59.421Z,6.28
2019-05-11T20:15:05.340Z,6.24
2019-05-11T20:20:10.591Z,6.19
2019-05-11T20:25:18.046Z,6.13
2019-05-11T20:30:22.514Z,6.11
2019-05-11T20:35:28.143Z,6.06
2019-05-11T20:40:35.101Z,6.00
2019-05-11T20:45:40.114Z,5.95
2019-05-11T20:50:48.344Z,5.88
2019-05-11T20:55:53.659Z,5.81
2019-05-11T21:00:58.741Z,5.85
2019-05-11T21:06:03.818Z,5.86
2019-05-11T21:11:09.000Z,5.89
2019-05-11T21:16:14.453Z,5.92
2019-05-11T21:21:19.609Z,5.97
2019-05-11T21:26:24.693Z,5.96
2019-05-11T21:31:31.229Z,5.95
2019-05-11T21:36:37.922Z,5.94
2019-05-11T21:41:43.136Z,5.93
2019-05-11T21:46:48.589Z,5.89
2019-05-11T21:52:03.922Z,5.85
2019-05-11T21:57:00.496Z,5.81
2019-05-11T22:02:10.649Z,5.80
2019-05-11T22:07:13.057Z,5.75
2019-05-11T22:12:18.793Z,5.73
2019-05-11T22:17:23.929Z,5.75
2019-05-11T22:22:28.998Z,5.74
2019-05-11T22:27:34.011Z,5.71
2019-05-11T22:32:40.141Z,5.70
2019-05-11T22:37:45.146Z,5.71
2019-05-11T22:42:50.337Z,5.71
2019-05-11T22:47:55.353Z,5.74
2019-05-11T22:53:00.497Z,5.75
2019-05-11T22:58:05.576Z,5.71
2019-05-11T23:03:11.179Z,5.76
2019-05-11T23:08:18.166Z,5.78
2019-05-11T23:13:23.391Z,5.71
2019-05-11T23:18:28.794Z,5.73
2019-05-11T23:23:33.903Z,5.74
2019-05-11T23:28:38.901Z,5.72
2019-05-11T23:33:44.062Z,5.70
2019-05-11T23:38:49.142Z,5.73
2019-05-11T23:43:54.586Z,5.71
2019-05-11T23:49:00.019Z,5.73
2019-05-11T23:54:05.169Z,5.78
2019-05-11T23:59:11.589Z,5.81
